.
WxDataArchive / Data Records for 2015-04-27
2015-04-26 April 2015 2015-04-28

Data Records for Monday, 27 April 2015

Time	Temp	Chill	HIndex	Humid	Dewpt	 Wind 	HiWind	WindDir	Rain 	Barom
-----	----	-----	------	-----	-----	------	------	-------	-----	-----
00:00	49.4	49.4	49.4	48	30.5	0	2	292	0.00	29.904 
00:05	49.2	49.2	49.2	48	30.4	0	1	292	0.00	29.904 
00:10	49.2	49.2	49.2	49	30.9	0	2	292	0.00	29.904 
00:15	49.1	49.1	49.1	49	30.8	0	2	292	0.00	29.906 
00:20	48.9	48.9	48.9	50	31.1	0	1	292	0.00	29.906 
00:25	48.8	48.8	48.8	50	31.0	0	2	292	0.00	29.906 
00:30	48.8	48.8	48.8	50	31.0	0	1	292	0.00	29.908 
00:35	48.6	48.6	48.6	50	30.8	0	2	292	0.00	29.908 
00:40	48.5	48.5	48.5	50	30.7	0	2	292	0.00	29.908 
00:45	48.3	48.3	48.3	50	30.5	0	2	292	0.00	29.910 
00:50	48.2	48.2	48.2	50	30.4	0	2	292	0.00	29.910 
00:55	48.2	48.2	48.2	50	30.4	0	2	292	0.00	29.910 
01:00	48.0	48.0	48.0	50	30.3	0	2	292	0.00	29.911 
01:05	47.9	47.9	47.9	50	30.2	0	1	292	0.00	29.911 
01:10	47.7	47.7	47.7	50	30.0	0	2	292	0.00	29.911 
01:15	47.4	47.4	47.4	50	29.7	0	1	292	0.00	29.913 
01:20	47.3	47.3	47.3	51	30.1	0	1	292	0.00	29.913 
01:25	47.0	47.0	47.0	51	29.8	0	2	292	0.00	29.913 
01:30	46.8	46.8	46.8	51	29.6	0	2	292	0.00	29.912 
01:35	46.8	46.8	46.8	51	29.6	0	2	292	0.00	29.912 
01:40	46.7	46.7	46.7	51	29.5	0	2	292	0.00	29.912 
01:45	46.5	46.5	46.5	52	29.8	0	1	292	0.00	29.910 
01:50	46.2	46.2	46.2	52	29.6	0	2	292	0.00	29.910 
01:55	46.2	46.2	46.2	52	29.6	1	3	292	0.00	29.910 
02:00	46.2	46.2	46.2	52	29.6	0	3	292	0.00	29.913 
02:05	46.1	46.1	46.1	52	29.5	0	2	292	0.00	29.913 
02:10	46.1	46.1	46.1	53	29.9	0	1	292	0.00	29.913 
02:15	46.0	46.0	46.0	53	29.8	0	2	292	0.00	29.910 
02:20	46.0	46.0	46.0	52	29.4	0	2	292	0.00	29.910 
02:25	46.0	46.0	46.0	53	29.8	0	1	292	0.00	29.910 
02:30	45.8	45.8	45.8	54	30.1	0	1	292	0.00	29.899 
02:35	45.7	45.7	45.7	54	30.0	0	1	292	0.00	29.899 
02:40	45.4	45.4	45.4	54	29.7	0	1	292	0.00	29.899 
02:45	45.1	45.1	45.1	55	29.9	0	2	292	0.00	29.897 
02:50	44.9	44.9	44.9	55	29.7	0	1	292	0.00	29.897 
02:55	44.6	44.6	44.6	56	29.9	0	0	---	0.00	29.897 
03:00	44.3	44.3	44.3	56	29.6	0	0	---	0.00	29.897 
03:05	44.1	44.1	44.1	57	29.9	0	0	---	0.00	29.897 
03:10	43.8	43.8	43.8	58	30.0	0	0	---	0.00	29.897 
03:15	43.5	43.5	43.5	58	29.7	0	0	---	0.00	29.897 
03:20	43.1	43.1	43.1	60	30.2	0	2	292	0.00	29.897 
03:25	42.8	42.8	42.8	61	30.3	0	1	292	0.00	29.897 
03:30	42.3	42.3	42.3	62	30.2	0	2	292	0.00	29.900 
03:35	42.1	42.1	42.1	63	30.4	0	1	292	0.00	29.900 
03:40	42.2	42.2	42.2	63	30.5	0	1	292	0.00	29.900 
03:45	42.2	42.2	42.2	63	30.5	0	0	---	0.00	29.902 
03:50	42.2	42.2	42.2	63	30.5	0	0	---	0.00	29.902 
03:55	42.1	42.1	42.1	63	30.4	0	0	---	0.00	29.902 
04:00	41.8	41.8	41.8	64	30.5	0	0	---	0.00	29.906 
04:05	41.6	41.6	41.6	65	30.7	0	0	---	0.00	29.906 
04:10	41.5	41.5	41.5	66	31.0	0	0	---	0.00	29.906 
04:15	41.2	41.2	41.2	66	30.7	0	0	---	0.00	29.909 
04:20	41.1	41.1	41.1	68	31.4	0	0	---	0.00	29.909 
04:25	40.9	40.9	40.9	69	31.5	0	0	---	0.00	29.909 
04:30	40.8	40.8	40.8	69	31.4	0	0	---	0.00	29.914 
04:35	40.6	40.6	40.6	70	31.6	0	0	---	0.00	29.914 
04:40	40.5	40.5	40.5	71	31.8	0	0	---	0.00	29.914 
04:45	40.3	40.3	40.3	72	32.0	0	0	---	0.00	29.916 
04:50	40.2	40.2	40.2	73	32.2	0	0	---	0.00	29.916 
04:55	39.9	39.9	39.9	73	32.0	0	0	---	0.00	29.916 
05:00	39.8	39.8	39.8	73	31.9	0	0	---	0.00	29.918 
05:05	39.5	39.5	39.5	74	31.9	0	0	---	0.00	29.918 
05:10	39.3	39.3	39.3	74	31.7	0	0	---	0.00	29.918 
05:15	39.1	39.1	39.1	75	31.9	0	0	---	0.00	29.921 
05:20	38.8	38.8	38.8	75	31.6	0	0	---	0.00	29.921 
05:25	38.6	38.6	38.6	76	31.7	0	0	---	0.00	29.921 
05:30	38.3	38.3	38.3	76	31.4	0	0	---	0.00	29.929 
05:35	38.2	38.2	38.2	77	31.6	0	0	---	0.00	29.929 
05:40	38.0	38.0	38.0	78	31.8	0	0	---	0.00	29.929 
05:45	37.9	37.9	37.9	78	31.7	0	0	---	0.00	29.924 
05:50	37.8	37.8	37.8	79	31.9	0	0	---	0.00	29.924 
05:55	37.8	37.8	37.8	80	32.2	0	0	---	0.00	29.924 
06:00	37.5	37.5	37.5	80	31.9	0	0	---	0.00	29.917 
06:05	37.2	37.2	37.2	80	31.6	0	0	---	0.00	29.917 
06:10	37.0	37.0	37.0	81	31.7	0	0	---	0.00	29.917 
06:15	37.0	37.0	37.0	81	31.7	0	0	---	0.00	29.926 
06:20	37.0	37.0	37.0	81	31.7	0	0	---	0.00	29.926 
06:25	37.0	37.0	37.0	82	32.0	0	0	---	0.00	29.926 
06:30	37.0	37.0	37.0	82	32.0	0	0	---	0.00	29.927 
06:35	37.2	37.2	37.2	82	32.2	0	1	292	0.00	29.927 
06:40	37.5	37.5	37.5	82	32.5	0	0	---	0.00	29.927 
06:45	37.6	37.6	37.6	82	32.6	0	0	---	0.00	29.928 
06:50	37.6	37.6	37.6	82	32.6	0	0	---	0.00	29.928 
06:55	37.5	37.5	37.5	81	32.2	0	0	---	0.00	29.928 
07:00	37.5	37.5	37.5	82	32.5	0	0	---	0.00	29.937 
07:05	37.6	37.6	37.6	82	32.6	0	1	292	0.00	29.937 
07:10	37.8	37.8	37.8	82	32.8	0	0	---	0.00	29.937 
07:15	37.8	37.8	37.8	81	32.5	0	0	---	0.00	29.941 
07:20	37.9	37.9	37.9	81	32.6	0	0	---	0.00	29.941 
07:25	37.9	37.9	37.9	81	32.6	0	0	---	0.00	29.941 
07:30	38.0	38.0	38.0	81	32.7	0	1	292	0.00	29.945 
07:35	38.3	38.3	38.3	80	32.7	0	1	292	0.00	29.945 
07:40	38.6	38.6	38.6	80	33.0	0	0	---	0.00	29.945 
07:45	39.1	39.1	39.1	79	33.1	0	0	---	0.00	29.933 
07:50	39.5	39.5	39.5	78	33.2	0	1	292	0.00	29.933 
07:55	40.1	40.1	40.1	77	33.5	0	0	---	0.00	29.933 
08:00	40.6	40.6	40.6	76	33.6	0	1	292	0.00	29.936 
08:05	41.1	41.1	41.1	74	33.5	0	3	292	0.00	29.936 
08:10	41.5	41.5	41.5	73	33.5	0	3	292	0.00	29.936 
08:15	42.1	42.1	42.1	72	33.7	0	1	292	0.00	29.946 
08:20	42.5	42.5	42.5	71	33.8	0	2	292	0.00	29.946 
08:25	42.9	42.9	42.9	70	33.8	0	2	292	0.00	29.946 
08:30	43.3	43.3	43.3	69	33.8	1	4	292	0.00	29.960 
08:35	43.6	43.6	43.6	68	33.7	2	5	292	0.00	29.960 
08:40	43.9	43.9	43.9	68	34.0	1	4	338	0.00	29.960 
08:45	44.3	44.3	44.3	67	34.0	1	3	338	0.00	29.965 
08:50	44.9	44.9	44.9	67	34.6	1	3	292	0.00	29.965 
08:55	45.2	45.2	45.2	65	34.1	1	4	338	0.00	29.965 
09:00	45.7	45.7	45.7	66	35.0	1	3	338	0.00	29.969 
09:05	46.0	46.0	46.0	63	34.1	1	3	292	0.00	29.969 
09:10	46.4	46.4	46.4	63	34.5	1	3	292	0.00	29.969 
09:15	46.5	46.5	46.5	62	34.2	1	3	292	0.00	29.982 
09:20	47.1	47.1	47.1	62	34.8	1	3	292	0.00	29.982 
09:25	47.3	47.3	47.3	60	34.1	2	4	292	0.00	29.982 
09:30	47.3	47.3	47.3	61	34.5	1	3	315	0.00	29.989 
09:35	47.6	47.6	47.6	61	34.8	2	4	315	0.00	29.989 
09:40	48.0	48.0	48.0	60	34.8	1	3	292	0.00	29.989 
09:45	48.5	48.5	48.5	60	35.3	1	2	292	0.00	29.995 
09:50	48.6	48.6	48.6	57	34.1	1	3	292	0.00	29.995 
09:55	48.8	48.8	48.8	58	34.7	1	3	292	0.00	29.995 
10:00	48.9	48.9	48.9	57	34.3	1	3	292	0.00	29.996 
10:05	49.1	49.1	49.1	56	34.1	1	3	292	0.00	29.996 
10:10	49.5	49.5	49.5	60	36.2	0	3	292	0.00	29.996 
10:15	49.8	49.8	49.8	57	35.2	1	3	292	0.00	29.991 
10:20	50.1	50.1	50.1	55	34.6	1	3	292	0.00	29.991 
10:25	50.1	50.1	50.1	55	34.6	1	3	292	0.00	29.991 
10:30	50.8	50.8	50.8	55	35.2	1	3	292	0.00	29.988 
10:35	51.1	51.1	51.1	54	35.0	1	3	292	0.00	29.988 
10:40	51.0	51.0	51.0	51	33.5	2	5	315	0.00	29.988 
10:45	51.0	51.0	51.0	54	34.9	1	5	315	0.00	29.986 
10:50	51.3	51.3	51.3	56	36.1	1	4	292	0.00	29.986 
10:55	51.7	51.7	51.7	53	35.1	1	6	292	0.00	29.986 
11:00	51.7	51.7	51.7	53	35.1	1	6	0	0.00	29.989 
11:05	51.4	51.4	51.4	53	34.8	2	4	292	0.00	29.989 
11:10	51.4	51.4	51.4	53	34.8	1	5	292	0.00	29.989 
11:15	51.4	51.4	51.4	52	34.4	1	4	315	0.00	29.997 
11:20	51.3	51.3	51.3	52	34.3	1	4	315	0.00	29.997 
11:25	51.0	51.0	51.0	53	34.5	2	5	315	0.00	29.997 
11:30	51.1	51.1	51.1	52	34.1	1	3	338	0.00	29.995 
11:35	51.1	51.1	51.1	53	34.6	2	4	270	0.00	29.995 
11:40	51.1	51.1	51.1	52	34.1	1	4	338	0.00	29.995 
11:45	51.0	51.0	51.0	53	34.5	2	4	315	0.00	29.991 
11:50	51.4	51.4	51.4	54	35.3	1	5	315	0.00	29.991 
11:55	52.2	52.2	52.2	53	35.6	1	4	315	0.00	29.991 
12:00	52.5	52.5	52.5	50	34.4	2	4	315	0.00	29.989 
12:05	52.5	52.5	52.5	51	34.9	1	5	338	0.00	29.989 
12:10	52.8	52.8	52.8	50	34.7	1	7	0	0.00	29.989 
12:15	52.6	52.6	52.6	51	35.0	1	5	0	0.00	29.990 
12:20	52.3	52.3	52.3	51	34.7	2	6	338	0.00	29.990 
12:25	52.2	52.2	52.2	51	34.6	0	3	315	0.00	29.990 
12:30	52.2	52.2	52.2	52	35.1	1	5	292	0.00	29.998 
12:35	52.2	52.2	52.2	53	35.6	1	2	292	0.00	29.998 
12:40	52.8	52.8	52.8	53	36.1	1	6	315	0.00	29.998 
12:45	52.5	52.5	52.5	53	35.9	1	5	338	0.00	29.998 
12:50	52.0	52.0	52.0	52	34.9	2	5	270	0.00	29.998 
12:55	52.0	52.0	52.0	53	35.4	1	5	270	0.00	29.998 
13:00	52.5	52.5	52.5	53	35.9	1	4	292	0.00	29.994 
13:05	52.6	52.6	52.6	52	35.5	1	6	68	0.00	29.994 
13:10	53.2	53.2	53.2	53	36.5	1	5	45	0.00	29.994 
13:15	53.5	53.5	53.5	51	35.8	2	6	68	0.00	29.995 
13:20	53.9	53.9	53.9	51	36.2	1	4	0	0.00	29.995 
13:25	53.6	53.6	53.6	49	34.9	1	5	45	0.00	29.995 
13:30	53.3	53.3	53.3	50	35.1	1	5	22	0.00	29.998 
13:35	53.2	53.2	53.2	52	36.0	0	4	338	0.00	29.998 
13:40	52.8	52.8	52.8	52	35.7	1	5	338	0.00	29.998 
13:45	52.5	52.5	52.5	50	34.4	1	4	0	0.00	29.998 
13:50	52.5	52.5	52.5	51	34.9	1	4	0	0.00	29.998 
13:55	52.2	52.2	52.2	52	35.1	2	5	338	0.00	29.998 
14:00	52.2	52.2	52.2	52	35.1	1	4	292	0.00	29.999 
14:05	52.5	52.5	52.5	52	35.4	1	4	292	0.00	29.999 
14:10	52.6	52.6	52.6	51	35.0	2	6	315	0.00	29.999 
14:15	52.6	52.6	52.6	52	35.5	1	6	0	0.00	30.003 
14:20	52.6	52.6	52.6	52	35.5	1	5	22	0.00	30.003 
14:25	52.8	52.8	52.8	53	36.1	1	4	68	0.00	30.003 
14:30	52.6	52.6	52.6	52	35.5	1	4	0	0.00	30.003 
14:35	52.8	52.8	52.8	52	35.7	1	6	0	0.00	30.003 
14:40	52.8	52.8	52.8	51	35.2	2	5	338	0.00	30.003 
14:45	52.8	52.8	52.8	49	34.2	2	4	90	0.00	30.007 
14:50	52.9	52.9	52.9	51	35.3	1	5	0	0.00	30.007 
14:55	52.8	52.8	52.8	51	35.2	1	6	270	0.00	30.007 
15:00	52.9	52.9	52.9	52	35.8	1	6	45	0.00	30.005 
15:05	52.9	52.9	52.9	51	35.3	1	4	22	0.00	30.005 
15:10	52.8	52.8	52.8	51	35.2	1	4	22	0.00	30.005 
15:15	52.6	52.6	52.6	49	34.0	1	4	45	0.00	30.008 
15:20	52.8	52.8	52.8	51	35.2	1	4	0	0.00	30.008 
15:25	52.8	52.8	52.8	50	34.7	1	4	292	0.00	30.008 
15:30	52.9	52.9	52.9	51	35.3	0	4	45	0.00	30.010 
15:35	53.1	53.1	53.1	51	35.5	1	3	90	0.00	30.010 
15:40	52.9	52.9	52.9	49	34.3	2	6	90	0.00	30.010 
15:45	52.6	52.6	52.6	49	34.0	1	3	292	0.00	30.011 
15:50	52.3	52.3	52.3	50	34.2	1	4	292	0.00	30.011 
15:55	52.2	52.2	52.2	52	35.1	1	3	112	0.00	30.011 
16:00	52.2	52.2	52.2	52	35.1	1	5	68	0.00	30.015 
16:05	52.0	52.0	52.0	50	33.9	2	7	0	0.00	30.015 
16:10	51.9	51.9	51.9	51	34.3	1	3	0	0.00	30.015 
16:15	51.7	51.7	51.7	51	34.2	1	5	338	0.00	30.022 
16:20	51.7	51.7	51.7	52	34.6	1	4	0	0.00	30.022 
16:25	51.7	51.7	51.7	51	34.2	1	3	315	0.00	30.022 
16:30	51.7	51.7	51.7	52	34.6	0	4	315	0.00	30.029 
16:35	51.7	51.7	51.7	53	35.1	0	2	338	0.00	30.029 
16:40	51.6	51.6	51.6	53	35.0	1	3	338	0.00	30.029 
16:45	51.7	51.7	51.7	53	35.1	1	4	90	0.00	30.031 
16:50	51.6	51.6	51.6	52	34.6	1	3	270	0.00	30.031 
16:55	51.6	51.6	51.6	53	35.0	1	4	270	0.00	30.031 
17:00	51.4	51.4	51.4	54	35.3	1	5	338	0.00	30.036 
17:05	51.3	51.3	51.3	54	35.2	1	5	338	0.00	30.036 
17:10	51.3	51.3	51.3	55	35.7	0	2	270	0.00	30.036 
17:15	51.3	51.3	51.3	54	35.2	1	3	292	0.00	30.040 
17:20	51.4	51.4	51.4	54	35.3	1	4	90	0.00	30.040 
17:25	51.4	51.4	51.4	54	35.3	0	3	68	0.00	30.040 
17:30	51.4	51.4	51.4	54	35.3	1	3	22	0.00	30.044 
17:35	51.4	51.4	51.4	55	35.8	1	3	0	0.00	30.044 
17:40	51.4	51.4	51.4	55	35.8	0	4	0	0.00	30.044 
17:45	51.6	51.6	51.6	55	36.0	1	4	292	0.00	30.041 
17:50	51.6	51.6	51.6	53	35.0	1	3	45	0.00	30.041 
17:55	51.6	51.6	51.6	54	35.5	1	4	45	0.00	30.041 
18:00	51.4	51.4	51.4	53	34.8	1	6	22	0.00	30.046 
18:05	51.4	51.4	51.4	53	34.8	1	4	22	0.00	30.046 
18:10	51.4	51.4	51.4	54	35.3	0	3	270	0.00	30.046 
18:15	51.3	51.3	51.3	53	34.8	1	4	292	0.00	30.049 
18:20	51.3	51.3	51.3	53	34.8	0	2	338	0.00	30.049 
18:25	51.3	51.3	51.3	53	34.8	0	3	338	0.00	30.049 
18:30	51.3	51.3	51.3	53	34.8	1	4	338	0.00	30.050 
18:35	51.1	51.1	51.1	54	35.0	1	3	90	0.00	30.050 
18:40	51.0	51.0	51.0	54	34.9	1	5	315	0.00	30.050 
18:45	50.8	50.8	50.8	54	34.8	0	2	315	0.00	30.053 
18:50	50.7	50.7	50.7	54	34.7	1	5	338	0.00	30.053 
18:55	50.5	50.5	50.5	54	34.5	1	4	338	0.00	30.053 
19:00	50.5	50.5	50.5	54	34.5	1	4	90	0.00	30.055 
19:05	50.4	50.4	50.4	54	34.4	1	5	90	0.00	30.055 
19:10	50.4	50.4	50.4	54	34.4	1	3	90	0.00	30.055 
19:15	50.2	50.2	50.2	54	34.2	1	5	90	0.00	30.060 
19:20	50.2	50.2	50.2	55	34.7	0	3	90	0.00	30.060 
19:25	50.1	50.1	50.1	56	35.0	1	3	68	0.00	30.060 
19:30	49.9	49.9	49.9	55	34.4	0	2	68	0.00	30.059 
19:35	49.8	49.8	49.8	56	34.7	0	4	45	0.00	30.059 
19:40	49.6	49.6	49.6	56	34.6	1	3	45	0.00	30.059 
19:45	49.5	49.5	49.5	55	34.0	0	4	0	0.00	30.061 
19:50	49.5	49.5	49.5	56	34.5	0	4	112	0.00	30.061 
19:55	49.4	49.4	49.4	56	34.4	0	2	112	0.00	30.061 
20:00	49.2	49.2	49.2	56	34.2	0	1	112	0.00	30.062 
20:05	48.9	48.9	48.9	57	34.3	0	1	112	0.00	30.062 
20:10	48.8	48.8	48.8	57	34.3	0	2	112	0.00	30.062 
20:15	48.5	48.5	48.5	57	34.0	0	0	---	0.00	30.060 
20:20	48.2	48.2	48.2	58	34.1	0	0	---	0.00	30.060 
20:25	47.9	47.9	47.9	58	33.8	0	1	112	0.00	30.060 
20:30	47.6	47.6	47.6	58	33.6	0	1	112	0.00	30.059 
20:35	47.3	47.3	47.3	59	33.7	0	0	---	0.00	30.059 
20:40	47.0	47.0	47.0	59	33.4	0	0	---	0.00	30.059 
20:45	46.7	46.7	46.7	59	33.1	0	0	---	0.00	30.064 
20:50	46.4	46.4	46.4	59	32.9	0	0	---	0.00	30.064 
20:55	46.0	46.0	46.0	60	32.9	0	0	---	0.00	30.064 
21:00	45.7	45.7	45.7	61	33.0	0	0	---	0.00	30.064 
21:05	45.2	45.2	45.2	62	33.0	0	0	---	0.00	30.064 
21:10	44.9	44.9	44.9	62	32.7	0	0	---	0.00	30.064 
21:15	44.5	44.5	44.5	63	32.7	0	0	---	0.00	30.068 
21:20	44.1	44.1	44.1	64	32.7	0	0	---	0.00	30.068 
21:25	43.6	43.6	43.6	65	32.6	0	0	---	0.00	30.068 
21:30	43.3	43.3	43.3	66	32.7	0	0	---	0.00	30.075 
21:35	42.9	42.9	42.9	68	33.1	0	0	---	0.00	30.075 
21:40	42.6	42.6	42.6	69	33.2	0	0	---	0.00	30.075 
21:45	42.3	42.3	42.3	69	32.9	0	0	---	0.00	30.079 
21:50	42.1	42.1	42.1	70	33.0	0	0	---	0.00	30.079 
21:55	41.8	41.8	41.8	71	33.1	0	0	---	0.00	30.079 
22:00	41.5	41.5	41.5	72	33.2	0	0	---	0.00	30.078 
22:05	41.2	41.2	41.2	73	33.2	0	0	---	0.00	30.078 
22:10	41.1	41.1	41.1	73	33.1	0	0	---	0.00	30.078 
22:15	40.8	40.8	40.8	74	33.2	0	0	---	0.00	30.077 
22:20	40.6	40.6	40.6	74	33.0	0	0	---	0.00	30.077 
22:25	40.3	40.3	40.3	74	32.7	0	0	---	0.00	30.077 
22:30	40.2	40.2	40.2	75	32.9	0	0	---	0.00	30.079 
22:35	40.1	40.1	40.1	75	32.8	0	0	---	0.00	30.079 
22:40	39.8	39.8	39.8	76	32.9	0	0	---	0.00	30.079 
22:45	39.6	39.6	39.6	76	32.7	0	0	---	0.00	30.083 
22:50	39.5	39.5	39.5	77	32.9	0	0	---	0.00	30.083 
22:55	39.3	39.3	39.3	77	32.7	0	0	---	0.00	30.083 
23:00	39.2	39.2	39.2	78	32.9	0	0	---	0.00	30.083 
23:05	38.9	38.9	38.9	78	32.6	0	0	---	0.00	30.083 
23:10	38.9	38.9	38.9	79	33.0	0	0	---	0.00	30.083 
23:15	38.8	38.8	38.8	79	32.9	0	0	---	0.00	30.081 
23:20	38.6	38.6	38.6	79	32.7	0	0	---	0.00	30.081 
23:25	38.6	38.6	38.6	80	33.0	0	0	---	0.00	30.081 
23:30	38.6	38.6	38.6	80	33.0	0	0	---	0.00	30.086 
23:35	38.6	38.6	38.6	81	33.3	0	0	---	0.00	30.086 
23:40	38.5	38.5	38.5	80	32.9	0	0	---	0.00	30.086 
23:45	38.3	38.3	38.3	81	33.0	0	0	---	0.00	30.084 
23:50	38.2	38.2	38.2	81	32.9	0	0	---	0.00	30.084 
23:55	38.0	38.0	38.0	81	32.7	0	0	---	0.00	30.084 

CoCoRaHS
IN-AL-39
A2 Web Hosting
Creative Commons License
GoDaddy
search engine by freefind advanced

loaded 2018-11-12 20:19:33 • last modified 2010-11-18 10:43:29
Privacy PolicyDisclaimer
• wx.awcolley.com is powered by PmWiki v.2002016 •
• all content (unless otherwise noted) © 2018 A W Colley